Time;durP1;ratioP1;P1;durP2;ratioP2;P2;SDS_P1;SDS_P2;PMS_P1;PMS_P2;Temp;Humidity;BMP_temperature;BMP_pressure;BME280_temperature;BME280_humidity;BME280_pressure;Samples;Min_cycle;Max_cycle;Signal;HPM_P1;HPM_P2
2023/12/22 00:01:00;;;;;;;0.68;0.65;;;;;;;;;;5789168;28;20062;-78
2023/12/22 00:03:51;;;;;;;0.50;0.50;;;;;;;;;;5773486;28;20433;-78
2023/12/22 00:06:42;;;;;;;1.23;1.00;;;;;;;;;;5789062;28;20074;-78
2023/12/22 00:09:33;;;;;;;0.68;0.68;;;;;;;;;;5773733;28;20058;-78
2023/12/22 00:12:24;;;;;;;2.50;1.02;;;;;;;;;;5788845;28;20062;-78
2023/12/22 00:15:14;;;;;;;1.27;0.75;;;;;;;;;;5789088;28;20054;-78
2023/12/22 00:18:06;;;;;;;17.27;1.33;;;;;;;;;;5788879;28;20051;-78
2023/12/22 00:20:57;;;;;;;3.55;1.48;;;;;;;;;;5789348;28;20058;-78
2023/12/22 00:23:47;;;;;;;9.23;1.30;;;;;;;;;;5788897;28;20066;-78
2023/12/22 00:26:38;;;;;;;2.25;1.67;;;;;;;;;;5788714;28;20613;-78
2023/12/22 00:29:29;;;;;;;8.43;2.80;;;;;;;;;;5788590;28;20053;-78
2023/12/22 00:32:20;;;;;;;0.30;0.30;;;;;;;;;;5774063;28;20047;-78
2023/12/22 00:35:10;;;;;;;2.70;0.50;;;;;;;;;;5773780;28;20066;-78
2023/12/22 00:38:01;;;;;;;2.47;1.52;;;;;;;;;;5788568;28;20059;-78
2023/12/22 00:40:52;;;;;;;1.33;1.23;;;;;;;;;;5774286;28;20055;-78
2023/12/22 00:43:43;;;;;;;2.08;1.45;;;;;;;;;;5787528;28;20118;-78
2023/12/22 00:46:34;;;;;;;1.75;1.13;;;;;;;;;;5788268;28;20117;-78
2023/12/22 00:49:24;;;;;;;2.78;1.65;;;;;;;;;;5788369;28;20102;-78
2023/12/22 00:52:15;;;;;;;3.80;1.33;;;;;;;;;;5788194;28;20079;-78
2023/12/22 00:55:06;;;;;;;2.17;0.95;;;;;;;;;;5788054;28;20058;-78
2023/12/22 00:57:57;;;;;;;2.65;1.48;;;;;;;;;;5788586;28;20131;-78
2023/12/22 01:00:48;;;;;;;2.45;1.08;;;;;;;;;;5787746;28;20054;-78
2023/12/22 01:03:39;;;;;;;4.38;0.57;;;;;;;;;;5794039;28;20452;-78
2023/12/22 01:06:29;;;;;;;0.70;0.70;;;;;;;;;;5810510;28;20126;-78
2023/12/22 01:09:22;;;;;;;0.40;0.40;;;;;;;;;;5795697;28;20485;-78
2023/12/22 01:12:13;;;;;;;0.20;0.20;;;;;;;;;;5794018;28;20146;-78
2023/12/22 01:15:05;;;;;;;1.60;1.10;;;;;;;;;;5795483;28;20070;-78
2023/12/22 01:17:55;;;;;;;0.30;0.30;;;;;;;;;;5795777;28;20066;-78
2023/12/22 01:20:46;;;;;;;1.40;0.75;;;;;;;;;;5793929;28;20408;-78
2023/12/22 01:23:37;;;;;;;2.28;1.13;;;;;;;;;;5807790;28;20043;-78
2023/12/22 01:26:28;;;;;;;1.50;0.98;;;;;;;;;;5794183;28;20046;-79
2023/12/22 01:29:19;;;;;;;0.30;0.30;;;;;;;;;;5777945;28;20137;-79
2023/12/22 01:32:09;;;;;;;1.80;1.13;;;;;;;;;;5793686;28;20042;-79
2023/12/22 01:35:09;;;;;;;0.32;0.32;;;;;;;;;;5778384;28;20062;-78
2023/12/22 01:38:00;;;;;;;1.75;1.35;;;;;;;;;;5779149;28;20073;-78
2023/12/22 01:40:50;;;;;;;1.25;1.17;;;;;;;;;;5793754;28;20051;-78
2023/12/22 01:43:41;;;;;;;1.48;1.27;;;;;;;;;;5777567;28;20438;-78
2023/12/22 01:46:33;;;;;;;0.77;0.65;;;;;;;;;;5793519;28;20512;-78
2023/12/22 01:49:25;;;;;;;2.05;1.15;;;;;;;;;;5805880;28;20042;-78
2023/12/22 01:52:17;;;;;;;0.63;0.55;;;;;;;;;;5777589;28;20054;-78
2023/12/22 01:55:13;;;;;;;0.50;0.50;;;;;;;;;;5793422;28;20326;-78
2023/12/22 01:58:04;;;;;;;2.53;1.05;;;;;;;;;;5793677;28;20476;-78
2023/12/22 02:00:56;;;;;;;0.52;0.52;;;;;;;;;;5795160;28;20055;-78
2023/12/22 02:03:52;;;;;;;0.50;0.50;;;;;;;;;;5777325;28;20042;-79
2023/12/22 02:06:43;;;;;;;0.93;0.65;;;;;;;;;;5777706;28;20047;-78
2023/12/22 02:09:35;;;;;;;2.00;1.23;;;;;;;;;;5793046;28;20046;-79
2023/12/22 02:12:26;;;;;;;1.27;1.00;;;;;;;;;;5809185;28;20050;-78
2023/12/22 02:15:17;;;;;;;1.92;0.95;;;;;;;;;;5793132;28;20421;-78
2023/12/22 02:18:16;;;;;;;0.50;0.50;;;;;;;;;;5776839;28;20058;-78
2023/12/22 02:21:07;;;;;;;0.88;0.77;;;;;;;;;;5777420;28;20141;-78
2023/12/22 02:24:00;;;;;;;3.70;0.93;;;;;;;;;;5794749;28;20050;-79
2023/12/22 02:26:51;;;;;;;1.65;1.27;;;;;;;;;;5793300;28;20125;-78
2023/12/22 02:30:13;;;;;;;1.35;1.20;;;;;;;;;;5792805;28;20050;-79
2023/12/22 02:33:06;;;;;;;3.05;2.17;;;;;;;;;;5792427;28;20519;-79
2023/12/22 02:36:04;;;;;;;4.78;0.98;;;;;;;;;;5777384;28;20053;-79
2023/12/22 02:38:55;;;;;;;1.80;1.58;;;;;;;;;;5793114;28;20501;-78
2023/12/22 02:41:46;;;;;;;1.50;1.10;;;;;;;;;;5792720;28;20047;-78
2023/12/22 02:44:38;;;;;;;1.17;0.85;;;;;;;;;;5792909;28;20494;-79
2023/12/22 02:47:32;;;;;;;7.57;2.05;;;;;;;;;;5792770;28;20053;-79
2023/12/22 02:50:23;;;;;;;1.98;0.70;;;;;;;;;;5792806;28;20043;-79
2023/12/22 02:53:13;;;;;;;4.88;1.60;;;;;;;;;;5776560;28;20054;-78
2023/12/22 02:56:05;;;;;;;0.95;0.95;;;;;;;;;;5808819;28;20066;-78
2023/12/22 02:58:56;;;;;;;2.10;1.77;;;;;;;;;;5793358;28;20058;-78
2023/12/22 03:01:46;;;;;;;1.10;0.77;;;;;;;;;;5808008;28;20047;-78
2023/12/22 03:04:37;;;;;;;3.90;1.30;;;;;;;;;;5808681;28;20137;-78
2023/12/22 03:07:28;;;;;;;1.00;1.00;;;;;;;;;;5776851;28;20058;-78
2023/12/22 03:10:19;;;;;;;2.15;1.92;;;;;;;;;;5792962;28;20667;-78
2023/12/22 03:13:10;;;;;;;7.47;3.25;;;;;;;;;;5792391;28;20438;-78
2023/12/22 03:16:01;;;;;;;1.23;0.95;;;;;;;;;;5776707;28;20130;-79
2023/12/22 03:18:52;;;;;;;0.63;0.60;;;;;;;;;;5808887;28;20058;-78
2023/12/22 03:21:42;;;;;;;3.13;1.38;;;;;;;;;;5793470;28;20050;-78
2023/12/22 03:24:33;;;;;;;3.50;0.68;;;;;;;;;;5792130;28;20046;-78
2023/12/22 03:27:24;;;;;;;2.42;1.30;;;;;;;;;;5792245;28;20042;-78
2023/12/22 03:30:15;;;;;;;0.63;0.57;;;;;;;;;;5792337;28;20057;-78
2023/12/22 03:33:06;;;;;;;9.85;0.85;;;;;;;;;;5776155;28;20054;-78
2023/12/22 03:35:57;;;;;;;6.15;1.33;;;;;;;;;;5793822;28;20055;-78
2023/12/22 03:38:48;;;;;;;1.15;1.05;;;;;;;;;;5776199;28;20043;-78
2023/12/22 03:41:38;;;;;;;0.85;0.85;;;;;;;;;;5760383;28;20421;-78
2023/12/22 03:44:29;;;;;;;1.77;0.90;;;;;;;;;;5793436;28;20046;-78
2023/12/22 03:47:20;;;;;;;0.32;0.32;;;;;;;;;;5797504;28;20051;-78
2023/12/22 03:50:11;;;;;;;0.45;0.45;;;;;;;;;;5790780;28;20058;-78
2023/12/22 03:53:02;;;;;;;1.00;0.52;;;;;;;;;;5780049;28;20129;-78
2023/12/22 03:55:52;;;;;;;8.20;1.00;;;;;;;;;;5797443;28;20703;-78
2023/12/22 03:58:43;;;;;;;0.70;0.70;;;;;;;;;;5795877;28;20047;-78
2023/12/22 04:01:34;;;;;;;0.65;0.65;;;;;;;;;;5780009;28;20124;-78
2023/12/22 04:04:27;;;;;;;0.80;0.80;;;;;;;;;;5796049;28;20504;-78
2023/12/22 04:07:18;;;;;;;15.13;0.70;;;;;;;;;;5811738;28;20416;-78
2023/12/22 04:10:09;;;;;;;1.75;0.93;;;;;;;;;;5796037;28;20390;-78
2023/12/22 04:13:00;;;;;;;1.13;1.00;;;;;;;;;;5795964;28;20074;-78
2023/12/22 04:15:50;;;;;;;4.85;0.60;;;;;;;;;;5797299;28;20051;-78
2023/12/22 04:18:42;;;;;;;4.32;0.50;;;;;;;;;;5810743;28;20054;-78
2023/12/22 04:21:33;;;;;;;0.47;0.47;;;;;;;;;;5779753;28;20542;-77
2023/12/22 04:24:24;;;;;;;0.55;0.55;;;;;;;;;;5795397;28;20043;-78
2023/12/22 04:27:15;;;;;;;1.85;0.88;;;;;;;;;;5779416;28;20046;-78
2023/12/22 04:30:06;;;;;;;2.05;0.90;;;;;;;;;;5805470;28;20058;-78
2023/12/22 04:32:57;;;;;;;1.30;0.95;;;;;;;;;;5797087;28;20050;-78
2023/12/22 04:35:48;;;;;;;1.20;1.10;;;;;;;;;;5779276;28;20045;-78
2023/12/22 04:38:40;;;;;;;0.63;0.63;;;;;;;;;;5795389;28;20038;-78
2023/12/22 04:41:31;;;;;;;7.30;1.85;;;;;;;;;;5795084;28;20054;-78
2023/12/22 04:44:22;;;;;;;1.60;1.35;;;;;;;;;;5796315;28;20047;-78
2023/12/22 04:47:13;;;;;;;0.40;0.40;;;;;;;;;;5796014;28;20051;-78
2023/12/22 04:50:04;;;;;;;0.98;0.98;;;;;;;;;;5810923;28;20063;-79
2023/12/22 04:52:55;;;;;;;2.05;0.40;;;;;;;;;;5796688;28;20094;-78
2023/12/22 04:55:46;;;;;;;0.55;0.55;;;;;;;;;;5794880;28;20420;-78
2023/12/22 04:58:37;;;;;;;28.67;0.75;;;;;;;;;;5794811;28;20050;-78
2023/12/22 05:01:28;;;;;;;0.95;0.85;;;;;;;;;;5795941;28;20181;-78
2023/12/22 05:04:18;;;;;;;0.90;0.90;;;;;;;;;;5794686;28;20493;-78
2023/12/22 05:07:10;;;;;;;18.10;2.13;;;;;;;;;;5794463;28;20077;-78
2023/12/22 05:10:01;;;;;;;0.45;0.45;;;;;;;;;;5810972;28;20051;-78
2023/12/22 05:12:52;;;;;;;1.15;0.75;;;;;;;;;;5810870;28;20073;-78
2023/12/22 05:15:43;;;;;;;0.40;0.40;;;;;;;;;;5794506;28;20046;-78
2023/12/22 05:18:33;;;;;;;0.65;0.40;;;;;;;;;;5778371;28;20042;-78
2023/12/22 05:21:24;;;;;;;1.65;0.52;;;;;;;;;;5778527;28;20409;-78
2023/12/22 05:24:15;;;;;;;3.92;0.65;;;;;;;;;;5794038;28;20061;-78
2023/12/22 05:27:06;;;;;;;0.20;0.20;;;;;;;;;;5804317;28;20051;-78
2023/12/22 05:30:01;;;;;;;0.55;0.55;;;;;;;;;;5794631;28;20054;-78
2023/12/22 05:32:52;;;;;;;1.95;0.77;;;;;;;;;;5794251;28;20121;-78
2023/12/22 05:35:43;;;;;;;1.20;0.55;;;;;;;;;;5795189;28;20521;-78
2023/12/22 05:38:38;;;;;;;0.82;0.82;;;;;;;;;;5793782;28;20186;-78
2023/12/22 05:41:29;;;;;;;1.55;1.10;;;;;;;;;;5777911;28;20043;-78
2023/12/22 05:44:20;;;;;;;3.83;1.38;;;;;;;;;;5777599;28;20061;-78
2023/12/22 05:47:11;;;;;;;6.43;0.82;;;;;;;;;;5793673;28;20073;-78
2023/12/22 05:50:02;;;;;;;1.60;1.50;;;;;;;;;;5793540;28;20054;-78
2023/12/22 05:52:54;;;;;;;1.17;0.57;;;;;;;;;;5810054;28;20149;-78
2023/12/22 05:55:44;;;;;;;0.38;0.38;;;;;;;;;;5809594;28;20054;-78
2023/12/22 05:58:35;;;;;;;1.30;0.40;;;;;;;;;;5777579;28;20054;-77
2023/12/22 06:01:26;;;;;;;0.28;0.28;;;;;;;;;;5793121;28;20046;-78
2023/12/22 06:04:17;;;;;;;1.08;0.98;;;;;;;;;;5793509;28;20059;-78
2023/12/22 06:07:08;;;;;;;0.70;0.70;;;;;;;;;;5794386;28;20154;-78
2023/12/22 06:09:59;;;;;;;6.65;1.80;;;;;;;;;;5793405;28;20051;-78
2023/12/22 06:12:50;;;;;;;4.82;0.60;;;;;;;;;;5793357;28;20047;-78
2023/12/22 06:15:41;;;;;;;0.73;0.55;;;;;;;;;;5792759;28;20051;-78
2023/12/22 06:18:31;;;;;;;0.40;0.40;;;;;;;;;;5777216;28;20057;-79
2023/12/22 06:21:22;;;;;;;0.80;0.80;;;;;;;;;;5794505;28;20425;-78
2023/12/22 06:24:13;;;;;;;2.40;0.82;;;;;;;;;;5804421;28;20057;-78
2023/12/22 06:27:06;;;;;;;22.55;0.90;;;;;;;;;;5794306;28;20057;-78
2023/12/22 06:29:57;;;;;;;0.70;0.70;;;;;;;;;;5793283;28;20485;-78
2023/12/22 06:32:48;;;;;;;1.90;0.98;;;;;;;;;;5793027;28;20393;-78
2023/12/22 06:35:41;;;;;;;4.20;0.47;;;;;;;;;;5792738;28;20080;-78
2023/12/22 06:38:32;;;;;;;0.55;0.55;;;;;;;;;;5792588;28;20058;-78
2023/12/22 06:41:28;;;;;;;9.27;0.90;;;;;;;;;;5776718;28;20043;-79
2023/12/22 06:44:19;;;;;;;12.80;1.08;;;;;;;;;;5792451;28;20097;-78
2023/12/22 06:47:10;;;;;;;2.00;0.90;;;;;;;;;;5776859;28;20421;-79
2023/12/22 06:50:00;;;;;;;0.88;0.60;;;;;;;;;;5792799;28;20126;-78
2023/12/22 06:52:52;;;;;;;3.05;1.02;;;;;;;;;;5793381;28;20055;-78
2023/12/22 06:55:43;;;;;;;1.48;1.27;;;;;;;;;;5792681;28;20437;-78
2023/12/22 06:58:33;;;;;;;0.70;0.70;;;;;;;;;;5793996;28;20043;-79
2023/12/22 07:01:33;;;;;;;1.67;1.02;;;;;;;;;;5792675;28;20488;-79
2023/12/22 07:04:24;;;;;;;0.63;0.63;;;;;;;;;;5777214;28;20049;-78
2023/12/22 07:07:15;;;;;;;3.65;1.10;;;;;;;;;;5792591;28;20693;-79
2023/12/22 07:10:07;;;;;;;0.70;0.70;;;;;;;;;;5776687;28;20493;-79
2023/12/22 07:12:57;;;;;;;1.30;1.02;;;;;;;;;;5793135;28;20189;-79
2023/12/22 07:15:48;;;;;;;2.42;2.22;;;;;;;;;;5792360;28;20038;-79
2023/12/22 07:18:40;;;;;;;0.73;0.73;;;;;;;;;;5793757;28;20648;-79
2023/12/22 07:21:31;;;;;;;5.80;1.92;;;;;;;;;;5795351;28;20101;-79
2023/12/22 07:24:22;;;;;;;1.75;1.45;;;;;;;;;;5796831;28;20047;-79
2023/12/22 07:27:13;;;;;;;1.20;0.80;;;;;;;;;;5780640;28;20417;-79
2023/12/22 07:30:04;;;;;;;9.05;2.05;;;;;;;;;;5780581;28;20057;-79
2023/12/22 07:32:57;;;;;;;1.23;1.13;;;;;;;;;;5797165;28;20130;-79
2023/12/22 07:35:48;;;;;;;2.88;1.27;;;;;;;;;;5796459;28;20070;-79
2023/12/22 07:38:39;;;;;;;2.70;1.88;;;;;;;;;;5796586;28;20091;-79
2023/12/22 07:41:30;;;;;;;1.40;1.05;;;;;;;;;;5780616;28;20043;-80
2023/12/22 07:44:21;;;;;;;7.82;3.25;;;;;;;;;;5796395;28;20058;-79
2023/12/22 07:47:11;;;;;;;7.68;1.33;;;;;;;;;;5796075;28;20054;-79
2023/12/22 07:50:03;;;;;;;4.18;2.20;;;;;;;;;;5796304;28;20065;-79
2023/12/22 07:52:54;;;;;;;5.05;2.30;;;;;;;;;;5780910;28;20453;-79
2023/12/22 07:55:46;;;;;;;3.30;2.65;;;;;;;;;;5796026;28;20525;-79
2023/12/22 07:58:38;;;;;;;3.78;2.75;;;;;;;;;;5796151;28;20043;-80
2023/12/22 08:01:28;;;;;;;13.07;2.97;;;;;;;;;;5779963;28;20050;-79
2023/12/22 08:04:19;;;;;;;3.85;1.38;;;;;;;;;;5780006;28;20050;-79
2023/12/22 08:07:10;;;;;;;0.95;0.93;;;;;;;;;;5797235;28;20057;-79
2023/12/22 08:10:02;;;;;;;8.20;1.85;;;;;;;;;;5795817;28;20051;-79
2023/12/22 08:12:53;;;;;;;8.95;3.60;;;;;;;;;;5797489;28;20058;-79
2023/12/22 08:15:44;;;;;;;3.97;1.45;;;;;;;;;;5795351;28;20038;-79
2023/12/22 08:18:35;;;;;;;5.85;1.05;;;;;;;;;;5779821;28;20046;-79
2023/12/22 08:21:26;;;;;;;1.48;1.38;;;;;;;;;;5795627;28;20054;-79
2023/12/22 08:24:33;;;;;;;0.80;0.80;;;;;;;;;;5796924;28;20077;-78
2023/12/22 08:27:23;;;;;;;12.00;3.10;;;;;;;;;;5780393;28;20119;-78
2023/12/22 08:30:14;;;;;;;15.25;2.97;;;;;;;;;;5795460;28;20055;-78
2023/12/22 08:33:05;;;;;;;2.25;1.75;;;;;;;;;;5796396;28;20055;-78
2023/12/22 08:35:56;;;;;;;3.47;2.00;;;;;;;;;;5795720;28;20420;-78
2023/12/22 08:38:46;;;;;;;1.02;1.02;;;;;;;;;;5795253;28;20054;-78
2023/12/22 08:41:38;;;;;;;1.90;1.55;;;;;;;;;;5795186;28;20417;-78
2023/12/22 08:44:29;;;;;;;4.80;2.42;;;;;;;;;;5795092;28;20042;-78
2023/12/22 08:47:20;;;;;;;8.38;3.22;;;;;;;;;;5795005;28;20129;-78
2023/12/22 08:50:12;;;;;;;10.05;2.45;;;;;;;;;;5796290;28;20043;-78
2023/12/22 08:53:04;;;;;;;1.23;1.13;;;;;;;;;;5796234;28;20126;-78
2023/12/22 08:55:55;;;;;;;1.55;1.45;;;;;;;;;;5795080;28;20062;-78
2023/12/22 08:58:46;;;;;;;7.35;2.30;;;;;;;;;;5794534;28;20053;-78
2023/12/22 09:01:37;;;;;;;2.05;1.30;;;;;;;;;;5794588;28;20043;-78
2023/12/22 09:04:27;;;;;;;3.92;1.48;;;;;;;;;;5795957;28;20133;-78
2023/12/22 09:07:19;;;;;;;4.38;2.45;;;;;;;;;;5790328;28;20057;-78
2023/12/22 09:10:12;;;;;;;5.28;2.80;;;;;;;;;;5795801;28;20055;-78
2023/12/22 09:13:03;;;;;;;19.75;3.17;;;;;;;;;;5804008;28;20137;-78
2023/12/22 09:15:54;;;;;;;6.18;2.45;;;;;;;;;;5778845;28;20054;-78
2023/12/22 09:18:44;;;;;;;4.43;1.98;;;;;;;;;;5795569;28;20046;-78
2023/12/22 09:21:36;;;;;;;3.30;1.75;;;;;;;;;;5792401;28;20051;-78
2023/12/22 09:24:26;;;;;;;1.67;1.58;;;;;;;;;;5795429;28;20039;-78
2023/12/22 09:27:17;;;;;;;5.95;2.67;;;;;;;;;;5794028;28;20046;-78
2023/12/22 09:30:08;;;;;;;3.53;3.15;;;;;;;;;;5794063;28;20059;-78
2023/12/22 09:32:59;;;;;;;3.58;2.53;;;;;;;;;;5794445;28;20050;-78
2023/12/22 09:35:50;;;;;;;5.40;3.22;;;;;;;;;;5809778;28;20043;-78
2023/12/22 09:38:42;;;;;;;7.10;3.22;;;;;;;;;;5793699;28;20441;-78
2023/12/22 09:41:33;;;;;;;3.80;3.10;;;;;;;;;;5793648;28;20046;-78
2023/12/22 09:44:28;;;;;;;7.97;3.38;;;;;;;;;;5793068;28;20046;-78
2023/12/22 09:47:20;;;;;;;6.35;3.55;;;;;;;;;;5808998;28;20412;-78
2023/12/22 09:50:13;;;;;;;4.22;2.30;;;;;;;;;;5777842;28;20125;-78
2023/12/22 09:53:06;;;;;;;3.25;1.98;;;;;;;;;;5793942;28;20066;-77
2023/12/22 09:55:58;;;;;;;3.17;2.40;;;;;;;;;;5793929;28;20058;-77
2023/12/22 09:58:51;;;;;;;4.35;3.17;;;;;;;;;;5777589;28;20049;-78
2023/12/22 10:01:47;;;;;;;3.58;2.17;;;;;;;;;;5793465;28;20061;-78
2023/12/22 10:04:38;;;;;;;6.07;2.03;;;;;;;;;;5777775;28;20054;-78
2023/12/22 10:07:30;;;;;;;2.53;2.33;;;;;;;;;;5806406;28;20043;-77
2023/12/22 10:10:22;;;;;;;8.85;3.50;;;;;;;;;;5793298;28;20519;-78
2023/12/22 10:13:14;;;;;;;7.18;4.30;;;;;;;;;;5793311;28;20062;-77
2023/12/22 10:16:06;;;;;;;6.63;3.47;;;;;;;;;;5802747;28;20058;-78
2023/12/22 10:18:59;;;;;;;10.73;3.78;;;;;;;;;;5809656;28;20051;-77
2023/12/22 10:21:50;;;;;;;4.03;1.75;;;;;;;;;;5793161;28;20046;-77
2023/12/22 10:24:44;;;;;;;3.08;1.90;;;;;;;;;;5777015;28;20424;-77
2023/12/22 10:27:37;;;;;;;3.38;2.92;;;;;;;;;;5791047;28;20047;-77
2023/12/22 10:30:28;;;;;;;3.38;2.45;;;;;;;;;;5792734;28;20043;-77
2023/12/22 10:33:19;;;;;;;4.75;2.60;;;;;;;;;;5792919;28;20416;-77
2023/12/22 10:36:10;;;;;;;2.78;2.17;;;;;;;;;;5776968;28;20065;-78
2023/12/22 10:39:01;;;;;;;11.80;2.97;;;;;;;;;;5794177;28;20065;-77
2023/12/22 10:41:52;;;;;;;8.35;3.60;;;;;;;;;;5809358;28;20069;-77
2023/12/22 10:44:43;;;;;;;7.97;2.97;;;;;;;;;;5794111;28;20039;-78
2023/12/22 10:47:34;;;;;;;5.47;2.67;;;;;;;;;;5792757;28;20050;-78
2023/12/22 10:50:25;;;;;;;4.53;2.38;;;;;;;;;;5793854;28;20874;-78
2023/12/22 10:53:16;;;;;;;5.03;2.25;;;;;;;;;;5804353;28;20061;-78
2023/12/22 10:56:09;;;;;;;1.38;1.27;;;;;;;;;;5796918;28;20391;-78
2023/12/22 10:59:01;;;;;;;0.90;0.65;;;;;;;;;;5798117;28;20058;-78
2023/12/22 11:01:53;;;;;;;0.60;0.60;;;;;;;;;;5813046;28;20066;-78
2023/12/22 11:05:05;;;;;;;1.30;1.00;;;;;;;;;;5797154;28;20098;-78
2023/12/22 11:08:03;;;;;;;4.55;1.27;;;;;;;;;;5797217;28;20129;-78
2023/12/22 11:10:58;;;;;;;1.48;0.88;;;;;;;;;;5774166;28;20086;-78
2023/12/22 11:13:51;;;;;;;1.30;0.45;;;;;;;;;;5812698;28;20046;-78
2023/12/22 11:16:47;;;;;;;1.17;1.08;;;;;;;;;;5780762;28;20049;-77
2023/12/22 11:19:40;;;;;;;1.58;1.48;;;;;;;;;;5810731;28;20043;-77
2023/12/22 11:22:32;;;;;;;0.43;0.43;;;;;;;;;;5780945;28;20051;-78
2023/12/22 11:25:25;;;;;;;1.15;0.80;;;;;;;;;;5793149;28;20050;-78
2023/12/22 11:28:18;;;;;;;0.52;0.52;;;;;;;;;;5798031;28;20134;-78
2023/12/22 11:31:10;;;;;;;1.83;1.33;;;;;;;;;;5796779;28;20061;-78
2023/12/22 11:34:04;;;;;;;1.02;0.82;;;;;;;;;;5796422;28;20047;-78
2023/12/22 11:37:03;;;;;;;2.15;1.10;;;;;;;;;;5796873;28;20066;-78
2023/12/22 11:39:54;;;;;;;1.10;0.90;;;;;;;;;;5781141;28;20051;-77
2023/12/22 11:42:50;;;;;;;6.88;0.77;;;;;;;;;;5796534;28;20505;-77
2023/12/22 11:45:43;;;;;;;0.57;0.57;;;;;;;;;;5780997;28;20042;-77
2023/12/22 11:48:33;;;;;;;0.63;0.47;;;;;;;;;;5797618;28;20061;-77
2023/12/22 11:51:34;;;;;;;3.50;1.23;;;;;;;;;;5797270;28;20129;-78
2023/12/22 11:54:52;;;;;;;3.45;1.08;;;;;;;;;;5797403;28;20050;-79
2023/12/22 11:57:42;;;;;;;1.30;1.17;;;;;;;;;;5796374;28;20050;-77
2023/12/22 12:00:36;;;;;;;8.00;2.90;;;;;;;;;;5797385;28;20121;-77
2023/12/22 12:03:27;;;;;;;3.85;1.42;;;;;;;;;;5797082;28;20062;-78
2023/12/22 12:06:30;;;;;;;1.95;1.23;;;;;;;;;;5794840;28;20046;-77
2023/12/22 12:09:46;;;;;;;1.67;1.38;;;;;;;;;;5797093;28;20157;-78
2023/12/22 12:12:38;;;;;;;3.08;1.50;;;;;;;;;;5797085;28;20050;-78
2023/12/22 12:15:29;;;;;;;1.23;1.05;;;;;;;;;;5795336;28;20047;-78
2023/12/22 12:18:23;;;;;;;2.15;1.15;;;;;;;;;;5795382;28;20055;-78
2023/12/22 12:21:16;;;;;;;7.80;2.33;;;;;;;;;;5779586;28;20053;-78
2023/12/22 12:24:09;;;;;;;4.70;2.67;;;;;;;;;;5795443;28;20050;-78
2023/12/22 12:27:00;;;;;;;4.25;3.03;;;;;;;;;;5795765;28;20046;-78
2023/12/22 12:29:51;;;;;;;5.22;2.53;;;;;;;;;;5811599;28;20054;-78
2023/12/22 12:32:47;;;;;;;1.73;1.63;;;;;;;;;;5811473;28;20042;-78
2023/12/22 12:35:40;;;;;;;4.72;1.70;;;;;;;;;;5795141;28;20062;-78
2023/12/22 12:39:01;;;;;;;8.60;2.60;;;;;;;;;;5795186;28;20069;-78
2023/12/22 12:41:54;;;;;;;6.35;1.45;;;;;;;;;;5796691;28;20432;-78
2023/12/22 12:44:47;;;;;;;2.17;1.98;;;;;;;;;;5778963;28;20053;-78
2023/12/22 12:47:38;;;;;;;2.22;1.83;;;;;;;;;;5779070;28;20061;-78
2023/12/22 12:50:31;;;;;;;4.18;2.15;;;;;;;;;;5778874;28;20089;-78
2023/12/22 12:53:22;;;;;;;3.80;1.42;;;;;;;;;;5794905;28;20067;-78
2023/12/22 12:56:14;;;;;;;1.45;1.00;;;;;;;;;;5794798;28;20058;-78
2023/12/22 12:59:14;;;;;;;4.95;1.13;;;;;;;;;;5794839;28;20061;-78
2023/12/22 13:02:04;;;;;;;1.80;1.15;;;;;;;;;;5794930;28;20042;-78
2023/12/22 13:04:55;;;;;;;2.70;1.65;;;;;;;;;;5795266;28;20050;-78
2023/12/22 13:07:46;;;;;;;2.60;1.02;;;;;;;;;;5778996;28;20054;-78
2023/12/22 13:10:38;;;;;;;1.02;1.02;;;;;;;;;;5794412;28;20054;-78
2023/12/22 13:13:29;;;;;;;1.95;0.98;;;;;;;;;;5794477;28;20050;-78
2023/12/22 13:16:26;;;;;;;0.88;0.85;;;;;;;;;;5794184;28;22365;-78
2023/12/22 13:19:17;;;;;;;0.50;0.50;;;;;;;;;;5794333;28;20141;-78
2023/12/22 13:22:08;;;;;;;6.95;1.77;;;;;;;;;;5804443;28;20524;-78
2023/12/22 13:24:59;;;;;;;1.02;0.90;;;;;;;;;;5794890;28;20388;-78
2023/12/22 13:27:51;;;;;;;0.60;0.55;;;;;;;;;;5795449;28;20071;-78
2023/12/22 13:30:44;;;;;;;0.93;0.70;;;;;;;;;;5808974;28;20058;-78
2023/12/22 13:33:35;;;;;;;1.92;1.00;;;;;;;;;;5792056;28;20043;-78
2023/12/22 13:36:26;;;;;;;1.38;1.17;;;;;;;;;;5795236;28;20050;-79
2023/12/22 13:39:17;;;;;;;0.40;0.40;;;;;;;;;;5793929;28;20046;-78
2023/12/22 13:42:19;;;;;;;1.23;1.00;;;;;;;;;;5777767;28;20396;-78
2023/12/22 13:45:11;;;;;;;2.03;0.93;;;;;;;;;;5795250;28;20445;-78
2023/12/22 13:48:03;;;;;;;0.73;0.73;;;;;;;;;;5777787;28;20057;-78
2023/12/22 13:51:01;;;;;;;1.40;1.17;;;;;;;;;;5795141;28;20058;-78
2023/12/22 13:53:52;;;;;;;1.73;1.60;;;;;;;;;;5794007;28;20050;-78
2023/12/22 13:56:46;;;;;;;1.77;0.95;;;;;;;;;;5808539;28;20064;-78
2023/12/22 13:59:36;;;;;;;1.20;1.10;;;;;;;;;;5793854;28;20051;-77
2023/12/22 14:02:27;;;;;;;3.40;1.25;;;;;;;;;;5794928;28;20125;-78
2023/12/22 14:05:18;;;;;;;1.70;1.35;;;;;;;;;;5793776;28;20046;-78
2023/12/22 14:08:09;;;;;;;1.55;1.27;;;;;;;;;;5793317;28;20051;-78
2023/12/22 14:11:00;;;;;;;1.73;1.02;;;;;;;;;;5778058;28;20050;-77
2023/12/22 14:13:51;;;;;;;0.82;0.82;;;;;;;;;;5793520;28;20054;-78
2023/12/22 14:16:42;;;;;;;1.52;0.50;;;;;;;;;;5794415;28;20043;-78
2023/12/22 14:19:33;;;;;;;1.98;1.15;;;;;;;;;;5793077;28;20138;-78
2023/12/22 14:22:24;;;;;;;6.22;1.52;;;;;;;;;;5792652;28;20043;-78
2023/12/22 14:25:15;;;;;;;0.77;0.77;;;;;;;;;;5809379;28;20481;-78
2023/12/22 14:28:06;;;;;;;3.05;1.45;;;;;;;;;;5776629;28;20057;-78
2023/12/22 14:30:57;;;;;;;1.05;0.60;;;;;;;;;;5792910;28;20423;-78
2023/12/22 14:33:48;;;;;;;0.65;0.65;;;;;;;;;;5792464;28;20055;-78
2023/12/22 14:36:39;;;;;;;1.50;1.40;;;;;;;;;;5792802;28;20386;-78
2023/12/22 14:39:31;;;;;;;0.73;0.68;;;;;;;;;;5793991;28;20053;-78
2023/12/22 14:42:22;;;;;;;1.27;1.17;;;;;;;;;;5794229;28;20047;-78
2023/12/22 14:45:13;;;;;;;0.40;0.40;;;;;;;;;;5792807;28;20046;-79
2023/12/22 14:48:04;;;;;;;0.57;0.57;;;;;;;;;;5794077;28;20088;-78
2023/12/22 14:50:55;;;;;;;1.08;0.98;;;;;;;;;;5793011;28;20528;-78
2023/12/22 14:53:46;;;;;;;0.65;0.65;;;;;;;;;;5777150;28;20050;-78
2023/12/22 14:56:42;;;;;;;1.02;0.80;;;;;;;;;;5776718;28;20058;-78
2023/12/22 14:59:33;;;;;;;1.20;0.73;;;;;;;;;;5792556;28;20047;-79
2023/12/22 15:02:24;;;;;;;16.98;0.90;;;;;;;;;;5792951;28;20162;-78
2023/12/22 15:05:15;;;;;;;1.20;0.95;;;;;;;;;;5776820;28;20058;-78
2023/12/22 15:08:07;;;;;;;1.58;1.48;;;;;;;;;;5794153;28;20536;-78
2023/12/22 15:10:58;;;;;;;1.17;1.02;;;;;;;;;;5777354;28;20054;-78
2023/12/22 15:13:49;;;;;;;2.33;1.30;;;;;;;;;;5808717;28;20042;-78
2023/12/22 15:16:46;;;;;;;0.55;0.40;;;;;;;;;;5793873;28;20458;-79
2023/12/22 15:19:44;;;;;;;1.08;0.77;;;;;;;;;;5808579;28;20692;-78
2023/12/22 15:22:35;;;;;;;2.17;1.58;;;;;;;;;;5794325;28;20488;-79
2023/12/22 15:25:26;;;;;;;3.03;0.90;;;;;;;;;;5792561;28;20529;-79
2023/12/22 15:28:17;;;;;;;4.20;0.73;;;;;;;;;;5776398;28;20054;-78
2023/12/22 15:31:08;;;;;;;0.90;0.47;;;;;;;;;;5793823;28;20073;-78
2023/12/22 15:33:59;;;;;;;4.85;1.27;;;;;;;;;;5792716;28;20050;-78
2023/12/22 15:36:49;;;;;;;2.33;1.13;;;;;;;;;;5792415;28;20046;-79
2023/12/22 15:39:40;;;;;;;4.05;1.50;;;;;;;;;;5793671;28;20062;-79
2023/12/22 15:42:32;;;;;;;2.75;1.17;;;;;;;;;;5795282;28;20047;-78
2023/12/22 15:45:22;;;;;;;10.02;2.65;;;;;;;;;;5797687;28;20050;-78
2023/12/22 15:48:14;;;;;;;3.33;0.82;;;;;;;;;;5796413;28;20055;-79
2023/12/22 15:51:14;;;;;;;1.85;1.23;;;;;;;;;;5797391;28;20130;-79
2023/12/22 15:54:09;;;;;;;0.50;0.50;;;;;;;;;;5796384;28;20512;-78
2023/12/22 15:57:02;;;;;;;0.63;0.63;;;;;;;;;;5796826;28;20055;-79
2023/12/22 15:59:53;;;;;;;2.65;1.40;;;;;;;;;;5797550;28;20075;-79
2023/12/22 16:02:44;;;;;;;3.17;1.10;;;;;;;;;;5796249;28;20118;-78
2023/12/22 16:05:34;;;;;;;0.77;0.47;;;;;;;;;;5797312;28;20051;-79
2023/12/22 16:08:25;;;;;;;0.65;0.45;;;;;;;;;;5795531;28;20054;-79
2023/12/22 16:11:19;;;;;;;2.00;1.42;;;;;;;;;;5807181;28;20062;-78
2023/12/22 16:14:10;;;;;;;11.95;1.38;;;;;;;;;;5797141;28;20644;-78
2023/12/22 16:17:01;;;;;;;6.63;3.13;;;;;;;;;;5811669;28;20051;-79
2023/12/22 16:19:52;;;;;;;2.78;1.83;;;;;;;;;;5796136;28;20078;-79
2023/12/22 16:22:43;;;;;;;5.85;1.58;;;;;;;;;;5810957;28;20445;-79
2023/12/22 16:25:33;;;;;;;2.00;1.33;;;;;;;;;;5809217;28;20062;-79
2023/12/22 16:28:24;;;;;;;3.55;2.58;;;;;;;;;;5779797;28;20050;-79
2023/12/22 16:31:15;;;;;;;6.75;1.67;;;;;;;;;;5795539;28;20046;-79
2023/12/22 16:34:06;;;;;;;2.85;0.68;;;;;;;;;;5796561;28;20047;-79
2023/12/22 16:36:57;;;;;;;2.95;1.65;;;;;;;;;;5795661;28;20497;-79
2023/12/22 16:39:53;;;;;;;1.25;1.13;;;;;;;;;;5795308;28;20039;-79
2023/12/22 16:42:43;;;;;;;2.13;1.90;;;;;;;;;;5810513;28;20050;-78
2023/12/22 16:45:35;;;;;;;4.63;1.95;;;;;;;;;;5811288;28;20089;-79
2023/12/22 16:48:25;;;;;;;1.45;0.93;;;;;;;;;;5811235;28;20046;-79
2023/12/22 16:51:16;;;;;;;1.58;1.05;;;;;;;;;;5796229;28;20050;-78
2023/12/22 16:54:07;;;;;;;1.00;1.00;;;;;;;;;;5794819;28;20141;-79
2023/12/22 16:56:58;;;;;;;3.30;1.30;;;;;;;;;;5795276;28;20105;-78
2023/12/22 16:59:50;;;;;;;4.30;1.05;;;;;;;;;;5794671;28;20042;-79
2023/12/22 17:02:41;;;;;;;0.82;0.80;;;;;;;;;;5810419;28;20046;-78
2023/12/22 17:05:32;;;;;;;2.00;1.63;;;;;;;;;;5778712;28;20047;-78
2023/12/22 17:08:23;;;;;;;0.70;0.70;;;;;;;;;;5795790;28;20049;-79
2023/12/22 17:11:14;;;;;;;7.18;2.35;;;;;;;;;;5794582;28;20417;-79